createdAt,value
2023-05-18T00:05:02.330Z,1.70
2023-05-18T00:10:04.067Z,1.70
2023-05-18T00:15:06.399Z,1.50
2023-05-18T00:20:09.603Z,1.52
2023-05-18T00:25:11.113Z,1.95
2023-05-18T00:30:12.917Z,1.70
2023-05-18T00:35:14.433Z,1.55
2023-05-18T00:40:16.059Z,1.77
2023-05-18T00:45:18.781Z,1.50
2023-05-18T00:50:21.181Z,1.70
2023-05-18T00:55:22.641Z,1.27
2023-05-18T01:00:24.388Z,1.67
2023-05-18T01:05:26.015Z,1.77
2023-05-18T01:10:27.487Z,1.75
2023-05-18T01:15:38.695Z,1.75
2023-05-18T01:20:58.216Z,1.98
2023-05-18T01:25:59.700Z,1.40
2023-05-18T01:31:01.645Z,1.60
2023-05-18T01:36:03.170Z,1.23
2023-05-18T01:41:10.495Z,1.77
2023-05-18T01:46:20.858Z,1.50
2023-05-18T01:51:26.860Z,1.50
2023-05-18T01:56:29.032Z,1.50
2023-05-18T02:01:30.593Z,1.92
2023-05-18T02:06:32.074Z,1.50
2023-05-18T02:11:33.512Z,1.33
2023-05-18T02:16:35.007Z,1.40
2023-05-18T02:21:36.600Z,1.48
2023-05-18T02:26:39.266Z,1.35
2023-05-18T02:31:41.249Z,1.65
2023-05-18T02:36:42.980Z,1.50
2023-05-18T02:41:44.610Z,2.00
2023-05-18T02:46:46.302Z,1.60
2023-05-18T02:51:47.743Z,1.65
2023-05-18T02:56:49.298Z,1.40
2023-05-18T03:01:51.021Z,1.80
2023-05-18T03:06:53.021Z,1.50
2023-05-18T03:11:55.264Z,1.60
2023-05-18T03:16:57.813Z,1.92
2023-05-18T03:21:59.557Z,1.58
2023-05-18T03:27:01.202Z,1.70
2023-05-18T03:32:02.732Z,1.33
2023-05-18T03:37:04.214Z,1.70
2023-05-18T03:42:05.784Z,1.60
2023-05-18T03:47:07.868Z,1.70
2023-05-18T03:52:09.316Z,1.75
2023-05-18T03:57:11.026Z,1.73
2023-05-18T04:02:13.156Z,2.08
2023-05-18T04:07:18.492Z,2.22
2023-05-18T04:12:19.942Z,1.65
2023-05-18T04:17:24.285Z,1.77
2023-05-18T04:22:25.816Z,2.00
2023-05-18T04:27:27.271Z,1.85
2023-05-18T04:32:31.289Z,2.20
2023-05-18T04:37:33.505Z,1.80
2023-05-18T04:42:35.674Z,2.03
2023-05-18T04:47:38.713Z,1.65
2023-05-18T04:52:41.993Z,1.83
2023-05-18T04:57:44.907Z,1.95
2023-05-18T05:02:46.486Z,1.90
2023-05-18T05:07:49.441Z,1.55
2023-05-18T05:12:51.124Z,1.83
2023-05-18T05:17:52.942Z,1.60
2023-05-18T05:22:54.458Z,1.50
2023-05-18T05:27:56.026Z,1.92
2023-05-18T05:32:57.507Z,1.67
2023-05-18T05:37:58.943Z,2.25
2023-05-18T05:43:00.436Z,1.90
2023-05-18T05:48:01.927Z,2.00
2023-05-18T05:53:03.460Z,1.88
2023-05-18T05:58:05.437Z,1.95
2023-05-18T06:03:07.337Z,1.92
2023-05-18T06:08:09.228Z,1.98
2023-05-18T06:13:10.838Z,2.10
2023-05-18T06:18:13.582Z,1.85
2023-05-18T06:23:15.490Z,2.28
2023-05-18T06:28:16.950Z,2.00
2023-05-18T06:33:21.085Z,1.92
2023-05-18T06:38:22.651Z,1.73
2023-05-18T06:43:26.902Z,1.98
2023-05-18T06:48:29.019Z,1.60
2023-05-18T06:53:32.049Z,1.73
2023-05-18T06:58:33.568Z,1.90
2023-05-18T07:03:37.234Z,2.00
2023-05-18T07:08:38.674Z,1.63
2023-05-18T07:13:40.152Z,1.90
2023-05-18T07:18:42.422Z,1.77
2023-05-18T07:23:43.932Z,2.45
2023-05-18T07:28:45.461Z,1.80
2023-05-18T07:33:48.093Z,1.83
2023-05-18T07:38:54.893Z,2.15
2023-05-18T07:43:56.590Z,1.52
2023-05-18T07:48:59.041Z,1.67
2023-05-18T07:54:00.534Z,1.80
2023-05-18T07:59:02.995Z,1.80
2023-05-18T08:04:04.874Z,1.80
2023-05-18T08:09:07.061Z,2.03
2023-05-18T08:14:08.561Z,2.10
2023-05-18T08:19:10.109Z,2.15
2023-05-18T08:24:11.823Z,1.90
2023-05-18T08:29:13.245Z,2.00
2023-05-18T08:34:15.705Z,1.92
2023-05-18T08:39:17.172Z,2.20
2023-05-18T08:44:22.565Z,2.60
2023-05-18T08:49:25.190Z,2.50
2023-05-18T08:54:27.328Z,2.00
2023-05-18T08:59:31.327Z,2.58
2023-05-18T09:04:34.728Z,2.30
2023-05-18T09:09:36.305Z,2.47
2023-05-18T09:14:38.504Z,2.35
2023-05-18T09:19:40.670Z,1.95
2023-05-18T09:24:42.220Z,2.00
2023-05-18T09:29:54.370Z,2.20
2023-05-18T09:34:56.942Z,2.05
2023-05-18T09:39:59.215Z,1.80
2023-05-18T09:45:01.186Z,2.25
2023-05-18T09:50:02.671Z,2.05
2023-05-18T09:55:05.064Z,2.30
2023-05-18T10:00:10.628Z,2.60
2023-05-18T10:05:27.441Z,2.20
2023-05-18T10:10:32.330Z,2.10
2023-05-18T10:15:35.480Z,2.35
2023-05-18T10:20:37.048Z,1.95
2023-05-18T10:25:39.238Z,2.70
2023-05-18T10:30:41.983Z,2.33
2023-05-18T10:35:45.444Z,2.58
2023-05-18T10:40:48.067Z,2.72
2023-05-18T10:45:53.535Z,2.28
2023-05-18T10:50:56.302Z,2.58
2023-05-18T10:55:58.084Z,2.30
2023-05-18T11:01:01.295Z,2.40
2023-05-18T11:06:08.166Z,2.42
2023-05-18T11:11:09.635Z,2.83
2023-05-18T11:16:11.128Z,2.50
2023-05-18T11:21:19.607Z,2.28
2023-05-18T11:26:28.422Z,2.55
2023-05-18T11:31:52.234Z,2.65
2023-05-18T11:36:56.099Z,2.90
2023-05-18T11:42:01.317Z,2.72
2023-05-18T11:47:04.132Z,2.50
2023-05-18T11:52:06.133Z,3.08
2023-05-18T11:57:07.954Z,2.38
2023-05-18T12:02:12.931Z,2.65
2023-05-18T12:07:15.059Z,2.53
2023-05-18T12:12:19.934Z,2.80
2023-05-18T12:17:22.312Z,2.65
2023-05-18T12:22:27.778Z,3.13
2023-05-18T12:27:29.355Z,2.50
2023-05-18T12:32:30.909Z,3.03
2023-05-18T12:37:44.128Z,2.25
2023-05-18T12:42:52.855Z,2.25
2023-05-18T12:47:55.581Z,2.40
2023-05-18T12:52:57.696Z,2.35
2023-05-18T12:58:01.689Z,2.70
2023-05-18T13:03:07.441Z,2.60
2023-05-18T13:08:09.793Z,2.30
2023-05-18T13:13:14.853Z,2.47
2023-05-18T13:18:16.969Z,2.75
2023-05-18T13:23:19.631Z,1.98
2023-05-18T13:28:22.289Z,2.25
2023-05-18T13:33:23.721Z,2.28
2023-05-18T13:38:25.177Z,2.15
2023-05-18T13:43:26.624Z,2.83
2023-05-18T13:48:29.204Z,2.30
2023-05-18T13:53:30.794Z,2.65
2023-05-18T13:58:32.227Z,2.47
2023-05-18T14:03:33.955Z,2.28
2023-05-18T14:08:35.632Z,1.90
2023-05-18T14:13:37.126Z,2.30
2023-05-18T14:18:38.593Z,1.77
2023-05-18T14:23:40.045Z,2.20
2023-05-18T14:28:41.489Z,2.00
2023-05-18T14:33:42.944Z,2.58
2023-05-18T14:38:46.216Z,2.20
2023-05-18T14:43:47.787Z,3.10
2023-05-18T14:48:49.231Z,2.30
2023-05-18T14:53:51.031Z,2.40
2023-05-18T14:58:52.779Z,2.67
2023-05-18T15:03:54.241Z,2.33
2023-05-18T15:08:56.253Z,2.58
2023-05-18T15:13:57.663Z,2.47
2023-05-18T15:18:59.209Z,2.13
2023-05-18T15:24:01.041Z,2.70
2023-05-18T15:29:03.337Z,2.53
2023-05-18T15:34:04.851Z,2.35
2023-05-18T15:39:06.543Z,2.35
2023-05-18T15:44:07.986Z,2.65
2023-05-18T15:49:09.510Z,2.80
2023-05-18T15:54:11.011Z,2.58
2023-05-18T15:59:13.605Z,2.65
2023-05-18T16:04:15.095Z,2.78
2023-05-18T16:09:16.562Z,2.85
2023-05-18T16:14:18.349Z,2.55
2023-05-18T16:19:19.895Z,2.40
2023-05-18T16:24:21.360Z,2.58
2023-05-18T16:29:24.403Z,2.75
2023-05-18T16:34:25.998Z,2.75
2023-05-18T16:39:27.498Z,2.72
2023-05-18T16:44:29.025Z,2.38
2023-05-18T16:49:30.927Z,3.08
2023-05-18T16:54:32.412Z,2.58
2023-05-18T16:59:34.490Z,2.60
2023-05-18T17:04:36.836Z,2.92
2023-05-18T17:09:42.897Z,2.35
2023-05-18T17:14:44.460Z,2.65
2023-05-18T17:19:45.964Z,2.53
2023-05-18T17:24:47.398Z,2.40
2023-05-18T17:29:48.883Z,2.60
2023-05-18T17:34:50.318Z,2.47
2023-05-18T17:39:51.754Z,3.03
2023-05-18T17:44:53.156Z,2.58
2023-05-18T17:49:54.641Z,2.40
2023-05-18T17:54:57.214Z,2.55
2023-05-18T17:59:59.491Z,2.55
2023-05-18T18:05:01.052Z,2.88
2023-05-18T18:10:02.518Z,2.47
2023-05-18T18:15:04.036Z,2.55
2023-05-18T18:20:05.927Z,2.10
2023-05-18T18:25:07.512Z,2.22
2023-05-18T18:30:09.709Z,2.10
2023-05-18T18:35:11.448Z,2.10
2023-05-18T18:40:14.443Z,2.33
2023-05-18T18:45:15.954Z,2.30
2023-05-18T18:50:17.513Z,2.30
2023-05-18T18:55:19.135Z,2.35
2023-05-18T19:00:21.532Z,2.40
2023-05-18T19:05:24.473Z,2.30
2023-05-18T19:10:26.233Z,2.08
2023-05-18T19:15:27.731Z,2.10
2023-05-18T19:20:29.401Z,2.33
2023-05-18T19:25:31.485Z,2.10
2023-05-18T19:30:33.178Z,2.17
2023-05-18T19:35:35.704Z,2.35
2023-05-18T19:40:37.164Z,2.05
2023-05-18T19:45:38.800Z,2.00
2023-05-18T19:50:40.330Z,2.15
2023-05-18T19:55:41.950Z,2.15
2023-05-18T20:00:44.352Z,2.55
2023-05-18T20:05:46.294Z,2.38
2023-05-18T20:10:47.854Z,2.03
2023-05-18T20:15:49.982Z,2.30
2023-05-18T20:20:51.856Z,2.60
2023-05-18T20:25:54.587Z,2.45
2023-05-18T20:30:56.125Z,2.50
2023-05-18T20:35:57.704Z,2.28
2023-05-18T20:40:59.609Z,2.30
2023-05-18T20:46:01.285Z,2.55
2023-05-18T20:51:02.741Z,3.20
2023-05-18T20:56:05.482Z,3.03
2023-05-18T21:01:08.637Z,2.40
2023-05-18T21:06:13.130Z,2.47
2023-05-18T21:11:14.740Z,2.25
2023-05-18T21:16:16.484Z,2.40
2023-05-18T21:21:17.958Z,2.38
2023-05-18T21:26:19.491Z,2.20
2023-05-18T21:31:21.135Z,2.10
2023-05-18T21:36:33.583Z,1.92
2023-05-18T21:41:38.753Z,2.20
2023-05-18T21:46:40.278Z,2.30
2023-05-18T21:51:41.782Z,2.22
2023-05-18T21:56:43.348Z,2.78
2023-05-18T22:01:44.805Z,2.67
2023-05-18T22:06:46.272Z,2.60
2023-05-18T22:11:47.742Z,2.30
2023-05-18T22:16:49.277Z,2.90
2023-05-18T22:21:50.780Z,2.45
2023-05-18T22:26:52.222Z,2.70
2023-05-18T22:31:53.670Z,2.53
2023-05-18T22:36:57.364Z,2.78
2023-05-18T22:41:58.809Z,2.33
2023-05-18T22:47:00.319Z,2.25
2023-05-18T22:52:04.315Z,3.35
2023-05-18T22:57:05.912Z,3.35
2023-05-18T23:02:07.534Z,2.47
2023-05-18T23:07:09.070Z,2.40
2023-05-18T23:12:11.183Z,2.10
2023-05-18T23:17:12.587Z,2.50
2023-05-18T23:22:14.049Z,3.15
2023-05-18T23:27:15.567Z,2.40
2023-05-18T23:32:17.060Z,2.20
2023-05-18T23:37:21.065Z,2.42
2023-05-18T23:42:24.091Z,2.50
2023-05-18T23:47:25.702Z,2.20
2023-05-18T23:52:28.875Z,2.35
2023-05-18T23:57:31.536Z,2.28
